sensor_id;sensor_type;location;lat;lon;timestamp;pressure;altitude;pressure_sealevel;temperature;humidity
75942;BME280;64622;46.220;19.878;2023-05-07T00:00:12;100481.00;;;14.55;78.24
75942;BME280;64622;46.220;19.878;2023-05-07T00:02:41;100490.75;;;14.56;78.43
75942;BME280;64622;46.220;19.878;2023-05-07T00:05:09;100480.28;;;14.61;77.98
75942;BME280;64622;46.220;19.878;2023-05-07T00:07:35;100481.13;;;14.61;77.89
75942;BME280;64622;46.220;19.878;2023-05-07T00:10:04;100478.44;;;14.61;77.77
75942;BME280;64622;46.220;19.878;2023-05-07T00:12:33;100479.06;;;14.63;77.58
75942;BME280;64622;46.220;19.878;2023-05-07T00:15:03;100468.56;;;14.54;78.03
75942;BME280;64622;46.220;19.878;2023-05-07T00:17:30;100474.63;;;14.48;77.96
75942;BME280;64622;46.220;19.878;2023-05-07T00:19:56;100468.94;;;14.43;78.77
75942;BME280;64622;46.220;19.878;2023-05-07T00:22:23;100464.47;;;14.35;78.76
75942;BME280;64622;46.220;19.878;2023-05-07T00:24:50;100480.50;;;14.29;79.49
75942;BME280;64622;46.220;19.878;2023-05-07T00:27:16;100476.66;;;14.23;79.65
75942;BME280;64622;46.220;19.878;2023-05-07T00:29:42;100470.81;;;14.12;80.26
75942;BME280;64622;46.220;19.878;2023-05-07T00:32:10;100489.47;;;14.13;80.42
75942;BME280;64622;46.220;19.878;2023-05-07T00:34:36;100483.75;;;14.16;80.00
75942;BME280;64622;46.220;19.878;2023-05-07T00:37:03;100482.25;;;14.14;80.01
75942;BME280;64622;46.220;19.878;2023-05-07T00:39:30;100490.50;;;14.12;80.53
75942;BME280;64622;46.220;19.878;2023-05-07T00:41:56;100481.44;;;14.05;81.23
75942;BME280;64622;46.220;19.878;2023-05-07T00:44:23;100482.25;;;14.14;80.45
75942;BME280;64622;46.220;19.878;2023-05-07T00:46:50;100467.94;;;14.13;80.05
75942;BME280;64622;46.220;19.878;2023-05-07T00:49:17;100465.72;;;14.25;78.93
75942;BME280;64622;46.220;19.878;2023-05-07T00:51:45;100458.59;;;14.32;78.34
75942;BME280;64622;46.220;19.878;2023-05-07T00:54:12;100479.12;;;14.33;78.82
75942;BME280;64622;46.220;19.878;2023-05-07T00:56:39;100457.56;;;14.33;78.43
75942;BME280;64622;46.220;19.878;2023-05-07T00:59:06;100471.84;;;14.41;77.93
75942;BME280;64622;46.220;19.878;2023-05-07T01:01:33;100474.59;;;14.33;78.44
75942;BME280;64622;46.220;19.878;2023-05-07T01:03:59;100459.78;;;14.29;78.23
75942;BME280;64622;46.220;19.878;2023-05-07T01:06:27;100477.81;;;14.29;78.71
75942;BME280;64622;46.220;19.878;2023-05-07T01:08:55;100477.50;;;14.24;79.29
75942;BME280;64622;46.220;19.878;2023-05-07T01:11:23;100484.94;;;14.14;79.87
75942;BME280;64622;46.220;19.878;2023-05-07T01:13:52;100478.88;;;14.12;80.10
75942;BME280;64622;46.220;19.878;2023-05-07T01:16:19;100481.75;;;14.10;79.97
75942;BME280;64622;46.220;19.878;2023-05-07T01:18:46;100484.84;;;13.99;80.98
75942;BME280;64622;46.220;19.878;2023-05-07T01:21:16;100487.97;;;14.11;80.17
75942;BME280;64622;46.220;19.878;2023-05-07T01:23:44;100483.97;;;14.07;80.77
75942;BME280;64622;46.220;19.878;2023-05-07T01:26:12;100488.37;;;14.00;81.08
75942;BME280;64622;46.220;19.878;2023-05-07T01:28:38;100481.34;;;13.91;81.59
75942;BME280;64622;46.220;19.878;2023-05-07T01:31:06;100496.47;;;13.92;81.72
75942;BME280;64622;46.220;19.878;2023-05-07T01:33:36;100481.53;;;13.89;81.58
75942;BME280;64622;46.220;19.878;2023-05-07T01:36:06;100496.62;;;13.98;81.15
75942;BME280;64622;46.220;19.878;2023-05-07T01:38:36;100490.75;;;13.95;80.98
75942;BME280;64622;46.220;19.878;2023-05-07T01:41:03;100488.41;;;13.92;81.18
75942;BME280;64622;46.220;19.878;2023-05-07T01:43:31;100483.09;;;13.84;81.58
75942;BME280;64622;46.220;19.878;2023-05-07T01:45:58;100498.84;;;13.87;81.73
75942;BME280;64622;46.220;19.878;2023-05-07T01:48:26;100494.31;;;13.87;81.74
75942;BME280;64622;46.220;19.878;2023-05-07T01:50:53;100490.84;;;13.79;82.23
75942;BME280;64622;46.220;19.878;2023-05-07T01:53:21;100479.38;;;13.85;81.62
75942;BME280;64622;46.220;19.878;2023-05-07T01:55:48;100490.00;;;13.78;81.94
75942;BME280;64622;46.220;19.878;2023-05-07T01:58:15;100486.59;;;13.84;81.61
75942;BME280;64622;46.220;19.878;2023-05-07T02:00:42;100487.06;;;13.88;81.18
75942;BME280;64622;46.220;19.878;2023-05-07T02:03:09;100489.44;;;13.83;81.47
75942;BME280;64622;46.220;19.878;2023-05-07T02:05:36;100467.28;;;13.81;81.30
75942;BME280;64622;46.220;19.878;2023-05-07T02:08:03;100474.87;;;13.77;81.45
75942;BME280;64622;46.220;19.878;2023-05-07T02:10:30;100486.66;;;13.76;81.83
75942;BME280;64622;46.220;19.878;2023-05-07T02:12:58;100472.03;;;13.71;82.01
75942;BME280;64622;46.220;19.878;2023-05-07T02:15:27;100483.66;;;13.63;83.01
75942;BME280;64622;46.220;19.878;2023-05-07T02:18:03;100467.91;;;13.44;84.26
75942;BME280;64622;46.220;19.878;2023-05-07T02:20:30;100472.81;;;13.41;84.79
75942;BME280;64622;46.220;19.878;2023-05-07T02:22:57;100475.50;;;13.33;85.31
75942;BME280;64622;46.220;19.878;2023-05-07T02:25:24;100464.78;;;13.25;86.06
75942;BME280;64622;46.220;19.878;2023-05-07T02:27:51;100469.16;;;13.26;86.47
75942;BME280;64622;46.220;19.878;2023-05-07T02:30:18;100457.75;;;13.16;87.00
75942;BME280;64622;46.220;19.878;2023-05-07T02:32:48;100461.78;;;13.20;87.24
75942;BME280;64622;46.220;19.878;2023-05-07T02:35:14;100445.00;;;13.10;88.01
75942;BME280;64622;46.220;19.878;2023-05-07T02:37:40;100444.31;;;13.08;87.89
75942;BME280;64622;46.220;19.878;2023-05-07T02:40:08;100442.00;;;13.05;88.01
75942;BME280;64622;46.220;19.878;2023-05-07T02:42:35;100454.41;;;13.06;88.39
75942;BME280;64622;46.220;19.878;2023-05-07T02:45:01;100448.53;;;13.02;88.04
75942;BME280;64622;46.220;19.878;2023-05-07T02:47:29;100457.25;;;13.04;88.37
75942;BME280;64622;46.220;19.878;2023-05-07T02:49:57;100445.00;;;12.94;88.71
75942;BME280;64622;46.220;19.878;2023-05-07T02:52:24;100446.53;;;12.96;88.56
75942;BME280;64622;46.220;19.878;2023-05-07T02:54:50;100444.69;;;12.97;88.65
75942;BME280;64622;46.220;19.878;2023-05-07T02:57:17;100455.09;;;13.00;88.35
75942;BME280;64622;46.220;19.878;2023-05-07T02:59:44;100457.63;;;13.01;88.17
75942;BME280;64622;46.220;19.878;2023-05-07T03:02:12;100451.38;;;12.93;88.60
75942;BME280;64622;46.220;19.878;2023-05-07T03:04:39;100451.72;;;12.90;89.21
75942;BME280;64622;46.220;19.878;2023-05-07T03:07:06;100457.78;;;12.84;89.60
75942;BME280;64622;46.220;19.878;2023-05-07T03:09:33;100457.78;;;12.76;90.24
75942;BME280;64622;46.220;19.878;2023-05-07T03:11:59;100454.75;;;12.71;90.66
75942;BME280;64622;46.220;19.878;2023-05-07T03:14:28;100474.22;;;12.65;91.74
75942;BME280;64622;46.220;19.878;2023-05-07T03:16:55;100470.22;;;12.53;92.65
75942;BME280;64622;46.220;19.878;2023-05-07T03:19:21;100466.00;;;12.42;93.21
75942;BME280;64622;46.220;19.878;2023-05-07T03:21:48;100478.75;;;12.40;93.86
75942;BME280;64622;46.220;19.878;2023-05-07T03:24:15;100482.75;;;12.36;94.17
75942;BME280;64622;46.220;19.878;2023-05-07T03:26:41;100475.34;;;12.22;94.09
75942;BME280;64622;46.220;19.878;2023-05-07T03:29:08;100477.03;;;12.23;94.18
75942;BME280;64622;46.220;19.878;2023-05-07T03:31:35;100489.44;;;12.24;93.98
75942;BME280;64622;46.220;19.878;2023-05-07T03:34:01;100490.78;;;12.20;94.10
75942;BME280;64622;46.220;19.878;2023-05-07T03:36:28;100486.06;;;12.14;94.97
75942;BME280;64622;46.220;19.878;2023-05-07T03:38:56;100483.03;;;12.09;95.34
75942;BME280;64622;46.220;19.878;2023-05-07T03:41:23;100486.56;;;12.10;94.88
75942;BME280;64622;46.220;19.878;2023-05-07T03:43:49;100487.72;;;12.07;95.51
75942;BME280;64622;46.220;19.878;2023-05-07T03:46:16;100496.44;;;12.01;96.44
75942;BME280;64622;46.220;19.878;2023-05-07T03:48:43;100490.63;;;12.30;95.13
75942;BME280;64622;46.220;19.878;2023-05-07T03:51:11;100494.31;;;12.37;94.93
75942;BME280;64622;46.220;19.878;2023-05-07T03:53:38;100491.47;;;12.30;94.97
75942;BME280;64622;46.220;19.878;2023-05-07T03:56:05;100496.53;;;12.41;94.80
75942;BME280;64622;46.220;19.878;2023-05-07T03:58:32;100492.31;;;12.47;94.13
75942;BME280;64622;46.220;19.878;2023-05-07T04:00:59;100496.03;;;12.54;93.66
75942;BME280;64622;46.220;19.878;2023-05-07T04:03:26;100492.34;;;12.71;91.96
75942;BME280;64622;46.220;19.878;2023-05-07T04:05:53;100503.78;;;12.89;91.66
75942;BME280;64622;46.220;19.878;2023-05-07T04:08:20;100504.13;;;13.02;91.09
75942;BME280;64622;46.220;19.878;2023-05-07T04:10:47;100502.78;;;13.06;90.29
75942;BME280;64622;46.220;19.878;2023-05-07T04:13:14;100506.44;;;13.21;88.97
75942;BME280;64622;46.220;19.878;2023-05-07T04:15:41;100513.78;;;13.43;88.23
75942;BME280;64622;46.220;19.878;2023-05-07T04:18:08;100508.56;;;13.57;88.08
75942;BME280;64622;46.220;19.878;2023-05-07T04:20:35;100508.88;;;13.62;86.68
75942;BME280;64622;46.220;19.878;2023-05-07T04:23:05;100509.16;;;13.75;86.95
75942;BME280;64622;46.220;19.878;2023-05-07T04:25:32;100512.63;;;13.92;85.95
75942;BME280;64622;46.220;19.878;2023-05-07T04:28:00;100519.34;;;13.96;84.47
75942;BME280;64622;46.220;19.878;2023-05-07T04:30:27;100522.66;;;14.06;83.79
75942;BME280;64622;46.220;19.878;2023-05-07T04:32:54;100510.81;;;14.23;82.93
75942;BME280;64622;46.220;19.878;2023-05-07T04:35:21;100532.16;;;14.32;81.89
75942;BME280;64622;46.220;19.878;2023-05-07T04:37:47;100522.41;;;14.31;81.46
75942;BME280;64622;46.220;19.878;2023-05-07T04:40:14;100529.63;;;14.31;81.34
75942;BME280;64622;46.220;19.878;2023-05-07T04:42:42;100525.09;;;14.31;80.83
75942;BME280;64622;46.220;19.878;2023-05-07T04:45:09;100530.09;;;14.34;81.75
75942;BME280;64622;46.220;19.878;2023-05-07T04:47:37;100538.34;;;14.33;81.73
75942;BME280;64622;46.220;19.878;2023-05-07T04:50:04;100533.03;;;14.25;80.70
75942;BME280;64622;46.220;19.878;2023-05-07T04:52:31;100541.06;;;14.55;79.84
75942;BME280;64622;46.220;19.878;2023-05-07T04:55:01;100540.59;;;14.52;79.42
75942;BME280;64622;46.220;19.878;2023-05-07T04:57:30;100530.47;;;14.31;79.47
75942;BME280;64622;46.220;19.878;2023-05-07T04:59:57;100539.09;;;14.49;78.96
75942;BME280;64622;46.220;19.878;2023-05-07T05:02:24;100537.59;;;14.47;79.37
75942;BME280;64622;46.220;19.878;2023-05-07T05:04:50;100552.84;;;14.62;79.30
75942;BME280;64622;46.220;19.878;2023-05-07T05:07:17;100538.69;;;14.83;79.18
75942;BME280;64622;46.220;19.878;2023-05-07T05:09:44;100550.06;;;14.93;77.53
75942;BME280;64622;46.220;19.878;2023-05-07T05:12:11;100552.37;;;14.81;77.78
75942;BME280;64622;46.220;19.878;2023-05-07T05:14:38;100557.56;;;14.83;77.22
75942;BME280;64622;46.220;19.878;2023-05-07T05:17:06;100562.75;;;15.07;77.24
75942;BME280;64622;46.220;19.878;2023-05-07T05:19:33;100555.28;;;15.17;75.81
75942;BME280;64622;46.220;19.878;2023-05-07T05:21:59;100554.91;;;15.20;77.09
75942;BME280;64622;46.220;19.878;2023-05-07T05:24:28;100561.63;;;15.24;75.37
75942;BME280;64622;46.220;19.878;2023-05-07T05:26:55;100562.87;;;15.36;76.30
75942;BME280;64622;46.220;19.878;2023-05-07T05:29:22;100562.50;;;15.39;75.58
75942;BME280;64622;46.220;19.878;2023-05-07T05:31:49;100562.91;;;15.50;74.99
75942;BME280;64622;46.220;19.878;2023-05-07T05:34:16;100565.34;;;15.60;75.91
75942;BME280;64622;46.220;19.878;2023-05-07T05:36:43;100564.84;;;15.42;75.44
75942;BME280;64622;46.220;19.878;2023-05-07T05:39:11;100556.66;;;15.35;75.05
75942;BME280;64622;46.220;19.878;2023-05-07T05:41:37;100554.28;;;15.55;75.17
75942;BME280;64622;46.220;19.878;2023-05-07T05:44:04;100560.69;;;15.68;73.92
75942;BME280;64622;46.220;19.878;2023-05-07T05:46:32;100552.72;;;15.75;73.35
75942;BME280;64622;46.220;19.878;2023-05-07T05:48:59;100555.84;;;15.93;73.40
75942;BME280;64622;46.220;19.878;2023-05-07T05:51:26;100569.16;;;16.23;70.88
75942;BME280;64622;46.220;19.878;2023-05-07T05:53:53;100560.22;;;16.23;70.42
75942;BME280;64622;46.220;19.878;2023-05-07T05:56:19;100566.81;;;16.20;71.15
75942;BME280;64622;46.220;19.878;2023-05-07T05:58:47;100559.28;;;16.45;69.95
75942;BME280;64622;46.220;19.878;2023-05-07T06:01:14;100569.41;;;16.57;68.96
75942;BME280;64622;46.220;19.878;2023-05-07T06:03:41;100568.25;;;16.66;68.46
75942;BME280;64622;46.220;19.878;2023-05-07T06:06:09;100568.84;;;16.83;69.19
75942;BME280;64622;46.220;19.878;2023-05-07T06:08:35;100564.41;;;16.75;67.62
75942;BME280;64622;46.220;19.878;2023-05-07T06:11:03;100570.78;;;17.10;66.96
75942;BME280;64622;46.220;19.878;2023-05-07T06:13:30;100566.56;;;17.49;66.47
75942;BME280;64622;46.220;19.878;2023-05-07T06:15:57;100553.59;;;17.66;63.56
75942;BME280;64622;46.220;19.878;2023-05-07T06:18:24;100568.03;;;17.79;63.96
75942;BME280;64622;46.220;19.878;2023-05-07T06:20:52;100566.09;;;17.39;64.93
75942;BME280;64622;46.220;19.878;2023-05-07T06:23:19;100571.84;;;17.91;63.45
75942;BME280;64622;46.220;19.878;2023-05-07T06:25:50;100576.03;;;17.94;63.54
75942;BME280;64622;46.220;19.878;2023-05-07T06:28:18;100562.91;;;17.91;64.07
75942;BME280;64622;46.220;19.878;2023-05-07T06:30:45;100567.09;;;18.81;61.77
75942;BME280;64622;46.220;19.878;2023-05-07T06:33:12;100561.47;;;19.02;61.63
75942;BME280;64622;46.220;19.878;2023-05-07T06:35:39;100558.16;;;19.13;60.12
75942;BME280;64622;46.220;19.878;2023-05-07T06:38:06;100555.78;;;18.77;60.97
75942;BME280;64622;46.220;19.878;2023-05-07T06:40:33;100556.66;;;18.91;59.94
75942;BME280;64622;46.220;19.878;2023-05-07T06:42:59;100547.50;;;18.98;60.30
75942;BME280;64622;46.220;19.878;2023-05-07T06:45:27;100558.59;;;19.49;58.71
75942;BME280;64622;46.220;19.878;2023-05-07T06:47:54;100552.13;;;19.76;57.97
75942;BME280;64622;46.220;19.878;2023-05-07T06:50:22;100557.31;;;19.84;57.68
75942;BME280;64622;46.220;19.878;2023-05-07T06:52:50;100556.09;;;19.73;57.16
75942;BME280;64622;46.220;19.878;2023-05-07T06:55:17;100561.25;;;20.07;58.55
75942;BME280;64622;46.220;19.878;2023-05-07T06:57:43;100546.44;;;20.54;56.33
75942;BME280;64622;46.220;19.878;2023-05-07T07:00:11;100550.62;;;20.50;56.68
75942;BME280;64622;46.220;19.878;2023-05-07T07:02:41;100563.59;;;19.71;55.93
75942;BME280;64622;46.220;19.878;2023-05-07T07:05:09;100562.06;;;20.01;56.11
75942;BME280;64622;46.220;19.878;2023-05-07T07:07:35;100561.88;;;19.96;55.06
75942;BME280;64622;46.220;19.878;2023-05-07T07:10:02;100563.06;;;20.33;54.72
75942;BME280;64622;46.220;19.878;2023-05-07T07:12:31;100550.94;;;20.29;54.46
75942;BME280;64622;46.220;19.878;2023-05-07T07:14:58;100549.47;;;20.33;54.92
75942;BME280;64622;46.220;19.878;2023-05-07T07:17:25;100554.03;;;20.32;55.47
75942;BME280;64622;46.220;19.878;2023-05-07T07:19:56;100552.06;;;20.96;53.76
75942;BME280;64622;46.220;19.878;2023-05-07T07:22:23;100549.28;;;21.34;51.83
75942;BME280;64622;46.220;19.878;2023-05-07T07:24:49;100542.97;;;20.71;54.60
75942;BME280;64622;46.220;19.878;2023-05-07T07:27:17;100546.25;;;21.17;53.99
75942;BME280;64622;46.220;19.878;2023-05-07T07:29:44;100555.75;;;21.08;53.11
75942;BME280;64622;46.220;19.878;2023-05-07T07:32:12;100555.75;;;21.57;52.45
75942;BME280;64622;46.220;19.878;2023-05-07T07:34:39;100556.28;;;21.48;51.09
75942;BME280;64622;46.220;19.878;2023-05-07T07:37:06;100553.78;;;21.46;51.75
75942;BME280;64622;46.220;19.878;2023-05-07T07:39:33;100554.19;;;20.94;51.99
75942;BME280;64622;46.220;19.878;2023-05-07T07:42:00;100560.22;;;21.27;52.27
75942;BME280;64622;46.220;19.878;2023-05-07T07:44:28;100561.94;;;21.22;51.63
75942;BME280;64622;46.220;19.878;2023-05-07T07:46:56;100563.38;;;21.49;51.47
75942;BME280;64622;46.220;19.878;2023-05-07T07:49:23;100555.00;;;21.75;50.10
75942;BME280;64622;46.220;19.878;2023-05-07T07:51:49;100558.25;;;21.83;50.27
75942;BME280;64622;46.220;19.878;2023-05-07T07:54:18;100563.00;;;22.30;50.32
75942;BME280;64622;46.220;19.878;2023-05-07T07:56:45;100547.69;;;22.65;47.20
75942;BME280;64622;46.220;19.878;2023-05-07T07:59:12;100556.56;;;22.07;48.90
75942;BME280;64622;46.220;19.878;2023-05-07T08:01:40;100550.59;;;22.82;47.12
75942;BME280;64622;46.220;19.878;2023-05-07T08:04:08;100550.44;;;22.47;47.72
75942;BME280;64622;46.220;19.878;2023-05-07T08:06:35;100552.66;;;22.68;45.88
75942;BME280;64622;46.220;19.878;2023-05-07T08:09:02;100543.72;;;22.91;45.91
75942;BME280;64622;46.220;19.878;2023-05-07T08:11:29;100552.72;;;22.80;46.63
75942;BME280;64622;46.220;19.878;2023-05-07T08:13:56;100554.28;;;22.58;45.88
75942;BME280;64622;46.220;19.878;2023-05-07T08:16:24;100540.56;;;23.46;44.48
75942;BME280;64622;46.220;19.878;2023-05-07T08:18:53;100552.00;;;22.01;47.38
75942;BME280;64622;46.220;19.878;2023-05-07T08:21:19;100548.47;;;23.25;45.17
75942;BME280;64622;46.220;19.878;2023-05-07T08:23:46;100546.22;;;22.92;44.69
75942;BME280;64622;46.220;19.878;2023-05-07T08:26:13;100546.97;;;22.70;46.42
75942;BME280;64622;46.220;19.878;2023-05-07T08:28:40;100542.91;;;23.31;45.41
75942;BME280;64622;46.220;19.878;2023-05-07T08:31:07;100549.47;;;23.76;43.80
75942;BME280;64622;46.220;19.878;2023-05-07T08:33:35;100545.22;;;23.92;44.10
75942;BME280;64622;46.220;19.878;2023-05-07T08:36:02;100534.03;;;24.16;42.75
75942;BME280;64622;46.220;19.878;2023-05-07T08:38:29;100539.13;;;24.92;40.12
75942;BME280;64622;46.220;19.878;2023-05-07T08:40:56;100531.91;;;24.46;40.78
75942;BME280;64622;46.220;19.878;2023-05-07T08:43:25;100536.41;;;25.08;39.71
75942;BME280;64622;46.220;19.878;2023-05-07T08:45:54;100541.97;;;25.13;41.73
75942;BME280;64622;46.220;19.878;2023-05-07T08:48:25;100548.81;;;24.43;40.72
75942;BME280;64622;46.220;19.878;2023-05-07T08:50:53;100542.72;;;23.79;42.98
75942;BME280;64622;46.220;19.878;2023-05-07T08:53:20;100537.09;;;23.39;44.38
75942;BME280;64622;46.220;19.878;2023-05-07T08:55:48;100549.69;;;23.29;44.29
75942;BME280;64622;46.220;19.878;2023-05-07T08:58:15;100539.00;;;23.62;43.49
75942;BME280;64622;46.220;19.878;2023-05-07T09:00:43;100540.00;;;23.90;41.99
75942;BME280;64622;46.220;19.878;2023-05-07T09:03:11;100537.34;;;23.84;42.52
75942;BME280;64622;46.220;19.878;2023-05-07T09:05:39;100552.03;;;24.40;42.44
75942;BME280;64622;46.220;19.878;2023-05-07T09:08:08;100542.22;;;24.28;41.58
75942;BME280;64622;46.220;19.878;2023-05-07T09:10:35;100532.34;;;24.55;40.49
75942;BME280;64622;46.220;19.878;2023-05-07T09:13:02;100541.75;;;25.97;37.00
75942;BME280;64622;46.220;19.878;2023-05-07T09:15:29;100544.66;;;25.91;37.44
75942;BME280;64622;46.220;19.878;2023-05-07T09:18:00;100534.09;;;25.17;39.33
75942;BME280;64622;46.220;19.878;2023-05-07T09:20:30;100539.25;;;26.55;36.27
75942;BME280;64622;46.220;19.878;2023-05-07T09:22:57;100534.88;;;25.95;37.34
75942;BME280;64622;46.220;19.878;2023-05-07T09:25:34;100536.25;;;25.15;38.05
75942;BME280;64622;46.220;19.878;2023-05-07T09:28:03;100540.56;;;24.55;38.59
75942;BME280;64622;46.220;19.878;2023-05-07T09:30:31;100532.22;;;27.44;33.84
75942;BME280;64622;46.220;19.878;2023-05-07T09:33:00;100533.03;;;28.99;31.78
75942;BME280;64622;46.220;19.878;2023-05-07T09:35:28;100534.72;;;27.82;33.26
75942;BME280;64622;46.220;19.878;2023-05-07T09:37:57;100527.63;;;26.70;34.48
75942;BME280;64622;46.220;19.878;2023-05-07T09:40:25;100529.75;;;28.30;32.90
75942;BME280;64622;46.220;19.878;2023-05-07T09:42:53;100538.56;;;26.05;34.85
75942;BME280;64622;46.220;19.878;2023-05-07T09:45:27;100529.09;;;28.08;32.26
75942;BME280;64622;46.220;19.878;2023-05-07T09:47:56;100522.63;;;29.36;30.08
75942;BME280;64622;46.220;19.878;2023-05-07T09:50:29;100522.50;;;28.76;31.67
75942;BME280;64622;46.220;19.878;2023-05-07T09:53:00;100528.94;;;27.47;34.64
75942;BME280;64622;46.220;19.878;2023-05-07T09:55:28;100523.31;;;28.05;34.22
75942;BME280;64622;46.220;19.878;2023-05-07T09:57:57;100519.38;;;26.70;36.79
75942;BME280;64622;46.220;19.878;2023-05-07T10:00:27;100518.19;;;27.14;36.96
75942;BME280;64622;46.220;19.878;2023-05-07T10:02:58;100522.50;;;27.05;35.74
75942;BME280;64622;46.220;19.878;2023-05-07T10:05:27;100512.97;;;26.43;37.19
75942;BME280;64622;46.220;19.878;2023-05-07T10:07:56;100521.06;;;25.07;39.16
75942;BME280;64622;46.220;19.878;2023-05-07T10:10:24;100505.31;;;25.64;38.96
75942;BME280;64622;46.220;19.878;2023-05-07T10:12:51;100512.34;;;24.54;40.40
75942;BME280;64622;46.220;19.878;2023-05-07T10:15:19;100521.16;;;25.12;40.17
75942;BME280;64622;46.220;19.878;2023-05-07T10:17:46;100521.34;;;26.53;37.98
75942;BME280;64622;46.220;19.878;2023-05-07T10:20:15;100523.06;;;26.16;38.14
75942;BME280;64622;46.220;19.878;2023-05-07T10:22:47;100514.41;;;26.24;37.68
75942;BME280;64622;46.220;19.878;2023-05-07T10:25:26;100515.91;;;25.93;38.58
75942;BME280;64622;46.220;19.878;2023-05-07T10:27:57;100510.72;;;25.42;39.53
75942;BME280;64622;46.220;19.878;2023-05-07T10:30:40;100510.50;;;24.83;41.28
75942;BME280;64622;46.220;19.878;2023-05-07T10:33:13;100511.50;;;25.38;39.88
75942;BME280;64622;46.220;19.878;2023-05-07T10:35:44;100514.66;;;25.18;39.85
75942;BME280;64622;46.220;19.878;2023-05-07T10:38:12;100508.44;;;25.06;39.67
75942;BME280;64622;46.220;19.878;2023-05-07T10:40:39;100515.91;;;24.27;41.44
75942;BME280;64622;46.220;19.878;2023-05-07T10:43:07;100513.94;;;24.78;40.93
75942;BME280;64622;46.220;19.878;2023-05-07T10:45:35;100508.44;;;24.11;42.48
75942;BME280;64622;46.220;19.878;2023-05-07T10:50:31;100493.19;;;24.54;40.99
75942;BME280;64622;46.220;19.878;2023-05-07T10:55:47;100496.00;;;23.69;44.09
75942;BME280;64622;46.220;19.878;2023-05-07T10:58:25;100507.16;;;23.44;43.25
75942;BME280;64622;46.220;19.878;2023-05-07T11:00:57;100506.44;;;23.26;43.88
75942;BME280;64622;46.220;19.878;2023-05-07T11:03:26;100525.44;;;23.21;44.57
75942;BME280;64622;46.220;19.878;2023-05-07T11:11:17;100573.03;;;17.76;91.23
75942;BME280;64622;46.220;19.878;2023-05-07T11:13:48;100561.97;;;17.43;100.00
75942;BME280;64622;46.220;19.878;2023-05-07T11:16:18;100548.91;;;17.53;97.94
75942;BME280;64622;46.220;19.878;2023-05-07T11:18:52;100548.81;;;17.68;100.00
75942;BME280;64622;46.220;19.878;2023-05-07T11:21:37;100554.97;;;18.23;100.00
75942;BME280;64622;46.220;19.878;2023-05-07T11:24:09;100529.91;;;18.62;100.00
75942;BME280;64622;46.220;19.878;2023-05-07T11:26:49;100532.88;;;18.99;100.00
75942;BME280;64622;46.220;19.878;2023-05-07T11:29:19;100535.22;;;19.54;100.00
75942;BME280;64622;46.220;19.878;2023-05-07T11:31:51;100524.06;;;20.52;98.49
75942;BME280;64622;46.220;19.878;2023-05-07T11:34:26;100531.34;;;22.11;89.11
75942;BME280;64622;46.220;19.878;2023-05-07T11:36:53;100520.81;;;22.80;80.63
75942;BME280;64622;46.220;19.878;2023-05-07T11:41:53;100519.66;;;23.75;75.92
75942;BME280;64622;46.220;19.878;2023-05-07T11:44:20;100518.72;;;23.17;75.23
75942;BME280;64622;46.220;19.878;2023-05-07T11:46:48;100521.50;;;22.10;75.30
75942;BME280;64622;46.220;19.878;2023-05-07T11:49:16;100513.97;;;21.45;76.42
75942;BME280;64622;46.220;19.878;2023-05-07T11:51:43;100522.81;;;21.41;77.98
75942;BME280;64622;46.220;19.878;2023-05-07T11:54:11;100512.84;;;21.28;78.56
75942;BME280;64622;46.220;19.878;2023-05-07T11:56:41;100528.37;;;21.28;78.25
75942;BME280;64622;46.220;19.878;2023-05-07T11:59:07;100527.66;;;21.14;78.28
75942;BME280;64622;46.220;19.878;2023-05-07T12:01:35;100531.91;;;21.04;78.04
75942;BME280;64622;46.220;19.878;2023-05-07T12:04:03;100530.47;;;21.01;77.34
75942;BME280;64622;46.220;19.878;2023-05-07T12:06:29;100532.44;;;21.19;78.47
75942;BME280;64622;46.220;19.878;2023-05-07T12:08:57;100535.34;;;20.93;78.07
75942;BME280;64622;46.220;19.878;2023-05-07T12:11:25;100527.09;;;20.68;79.46
75942;BME280;64622;46.220;19.878;2023-05-07T12:13:53;100528.66;;;20.51;87.62
75942;BME280;64622;46.220;19.878;2023-05-07T12:16:21;100539.84;;;20.30;86.91
75942;BME280;64622;46.220;19.878;2023-05-07T12:18:48;100535.25;;;20.31;88.89
75942;BME280;64622;46.220;19.878;2023-05-07T12:21:15;100528.09;;;20.36;74.07
75942;BME280;64622;46.220;19.878;2023-05-07T12:23:43;100532.19;;;20.14;85.31
75942;BME280;64622;46.220;19.878;2023-05-07T12:26:11;100532.56;;;20.18;85.48
75942;BME280;64622;46.220;19.878;2023-05-07T12:28:38;100517.59;;;20.46;86.74
75942;BME280;64622;46.220;19.878;2023-05-07T12:31:05;100509.41;;;20.53;81.05
75942;BME280;64622;46.220;19.878;2023-05-07T12:33:32;100519.03;;;20.55;82.50
75942;BME280;64622;46.220;19.878;2023-05-07T12:36:04;100526.34;;;20.86;83.16
75942;BME280;64622;46.220;19.878;2023-05-07T12:38:36;100521.56;;;20.81;79.88
75942;BME280;64622;46.220;19.878;2023-05-07T12:41:06;100518.72;;;21.32;82.07
75942;BME280;64622;46.220;19.878;2023-05-07T12:43:33;100526.59;;;21.64;77.58
75942;BME280;64622;46.220;19.878;2023-05-07T12:46:04;100526.84;;;22.35;76.73
75942;BME280;64622;46.220;19.878;2023-05-07T12:48:31;100536.19;;;22.75;74.82
75942;BME280;64622;46.220;19.878;2023-05-07T12:51:01;100529.63;;;24.55;67.55
75942;BME280;64622;46.220;19.878;2023-05-07T12:53:30;100520.50;;;24.77;68.57
75942;BME280;64622;46.220;19.878;2023-05-07T12:55:58;100512.84;;;25.57;65.27